sensor_id;sensor_type;location;lat;lon;timestamp;pressure;altitude;pressure_sealevel;temperature;humidity
74079;BME280;62437;51.544;-3.276;2023-05-23T00:00:48;102045.32;;;10.70;55.57
74079;BME280;62437;51.544;-3.276;2023-05-23T00:03:14;102039.81;;;11.53;53.92
74079;BME280;62437;51.544;-3.276;2023-05-23T00:05:40;102041.12;;;10.80;55.73
74079;BME280;62437;51.544;-3.276;2023-05-23T00:08:05;102026.96;;;11.57;55.06
74079;BME280;62437;51.544;-3.276;2023-05-23T00:10:31;102024.83;;;10.62;57.40
74079;BME280;62437;51.544;-3.276;2023-05-23T00:12:57;102023.37;;;10.37;57.27
74079;BME280;62437;51.544;-3.276;2023-05-23T00:15:22;102027.30;;;10.76;55.33
74079;BME280;62437;51.544;-3.276;2023-05-23T00:17:48;102027.47;;;11.13;55.00
74079;BME280;62437;51.544;-3.276;2023-05-23T00:20:14;102026.48;;;11.67;53.47
74079;BME280;62437;51.544;-3.276;2023-05-23T00:22:39;102033.55;;;11.31;53.12
74079;BME280;62437;51.544;-3.276;2023-05-23T00:25:06;102032.28;;;10.73;54.39
74079;BME280;62437;51.544;-3.276;2023-05-23T00:27:31;102032.12;;;11.01;54.23
74079;BME280;62437;51.544;-3.276;2023-05-23T00:29:56;102037.05;;;10.41;56.74
74079;BME280;62437;51.544;-3.276;2023-05-23T00:32:22;102047.93;;;10.46;57.78
74079;BME280;62437;51.544;-3.276;2023-05-23T00:34:48;102051.64;;;11.12;54.94
74079;BME280;62437;51.544;-3.276;2023-05-23T00:37:13;102052.48;;;11.34;53.89
74079;BME280;62437;51.544;-3.276;2023-05-23T00:39:39;102055.04;;;10.22;59.07
74079;BME280;62437;51.544;-3.276;2023-05-23T00:42:05;102052.87;;;9.75;60.43
74079;BME280;62437;51.544;-3.276;2023-05-23T00:44:31;102050.42;;;9.48;60.85
74079;BME280;62437;51.544;-3.276;2023-05-23T00:46:57;102050.56;;;9.24;61.55
74079;BME280;62437;51.544;-3.276;2023-05-23T00:49:22;102056.29;;;9.22;63.50
74079;BME280;62437;51.544;-3.276;2023-05-23T00:51:48;102057.45;;;8.72;63.11
74079;BME280;62437;51.544;-3.276;2023-05-23T00:54:15;102056.99;;;8.79;63.08
74079;BME280;62437;51.544;-3.276;2023-05-23T00:56:39;102054.17;;;8.69;63.81
74079;BME280;62437;51.544;-3.276;2023-05-23T00:59:05;102053.02;;;8.99;63.15
74079;BME280;62437;51.544;-3.276;2023-05-23T01:01:31;102053.38;;;8.31;63.57
74079;BME280;62437;51.544;-3.276;2023-05-23T01:03:56;102054.32;;;8.31;64.42
74079;BME280;62437;51.544;-3.276;2023-05-23T01:06:22;102054.48;;;8.19;65.10
74079;BME280;62437;51.544;-3.276;2023-05-23T01:08:48;102057.79;;;8.18;64.22
74079;BME280;62437;51.544;-3.276;2023-05-23T01:11:20;102053.82;;;8.33;63.08
74079;BME280;62437;51.544;-3.276;2023-05-23T01:13:46;102051.66;;;8.18;64.29
74079;BME280;62437;51.544;-3.276;2023-05-23T01:16:07;102054.53;;;8.42;64.22
74079;BME280;62437;51.544;-3.276;2023-05-23T01:18:36;102060.44;;;8.17;65.20
74079;BME280;62437;51.544;-3.276;2023-05-23T01:21:02;102059.11;;;8.49;62.40
74079;BME280;62437;51.544;-3.276;2023-05-23T01:28:16;102057.80;;;8.16;64.31
74079;BME280;62437;51.544;-3.276;2023-05-23T01:30:40;102058.75;;;8.45;65.40
74079;BME280;62437;51.544;-3.276;2023-05-23T01:33:06;102059.55;;;7.79;65.39
74079;BME280;62437;51.544;-3.276;2023-05-23T01:35:30;102057.88;;;7.58;65.72
74079;BME280;62437;51.544;-3.276;2023-05-23T01:37:56;102063.66;;;7.70;66.14
74079;BME280;62437;51.544;-3.276;2023-05-23T01:40:23;102064.70;;;7.64;66.79
74079;BME280;62437;51.544;-3.276;2023-05-23T01:42:48;102065.96;;;7.56;66.88
74079;BME280;62437;51.544;-3.276;2023-05-23T01:45:14;102068.15;;;7.69;66.46
74079;BME280;62437;51.544;-3.276;2023-05-23T01:47:41;102067.51;;;8.63;65.34
74079;BME280;62437;51.544;-3.276;2023-05-23T01:50:06;102069.75;;;8.09;64.11
74079;BME280;62437;51.544;-3.276;2023-05-23T01:52:31;102070.59;;;8.07;65.54
74079;BME280;62437;51.544;-3.276;2023-05-23T01:54:57;102077.21;;;7.84;64.42
74079;BME280;62437;51.544;-3.276;2023-05-23T01:57:23;102074.79;;;8.49;62.49
74079;BME280;62437;51.544;-3.276;2023-05-23T01:59:48;102075.79;;;7.87;65.20
74079;BME280;62437;51.544;-3.276;2023-05-23T02:02:14;102076.37;;;8.15;65.10
74079;BME280;62437;51.544;-3.276;2023-05-23T02:04:39;102076.67;;;7.88;65.15
74079;BME280;62437;51.544;-3.276;2023-05-23T02:07:05;102081.69;;;8.33;63.53
74079;BME280;62437;51.544;-3.276;2023-05-23T02:09:31;102083.05;;;8.02;62.28
74079;BME280;62437;51.544;-3.276;2023-05-23T02:11:57;102084.50;;;8.48;62.91
74079;BME280;62437;51.544;-3.276;2023-05-23T02:14:22;102091.73;;;7.93;64.01
74079;BME280;62437;51.544;-3.276;2023-05-23T02:16:48;102096.91;;;8.08;63.94
74079;BME280;62437;51.544;-3.276;2023-05-23T02:19:14;102094.39;;;7.86;65.46
74079;BME280;62437;51.544;-3.276;2023-05-23T02:21:39;102093.62;;;7.86;64.10
74079;BME280;62437;51.544;-3.276;2023-05-23T02:24:05;102096.70;;;7.89;64.26
74079;BME280;62437;51.544;-3.276;2023-05-23T02:26:31;102095.74;;;9.15;60.03
74079;BME280;62437;51.544;-3.276;2023-05-23T02:28:57;102096.49;;;8.47;62.95
74079;BME280;62437;51.544;-3.276;2023-05-23T02:31:22;102095.16;;;9.70;57.14
74079;BME280;62437;51.544;-3.276;2023-05-23T02:33:48;102099.63;;;8.72;61.63
74079;BME280;62437;51.544;-3.276;2023-05-23T02:36:14;102102.24;;;8.03;63.71
74079;BME280;62437;51.544;-3.276;2023-05-23T02:38:40;102098.86;;;8.52;63.27
74079;BME280;62437;51.544;-3.276;2023-05-23T02:41:05;102096.69;;;7.76;64.08
74079;BME280;62437;51.544;-3.276;2023-05-23T02:43:31;102090.34;;;8.87;63.50
74079;BME280;62437;51.544;-3.276;2023-05-23T02:45:57;102089.24;;;9.15;60.64
74079;BME280;62437;51.544;-3.276;2023-05-23T02:48:23;102093.01;;;8.26;63.60
74079;BME280;62437;51.544;-3.276;2023-05-23T02:50:48;102093.01;;;7.90;64.45
74079;BME280;62437;51.544;-3.276;2023-05-23T02:53:14;102090.45;;;8.40;64.35
74079;BME280;62437;51.544;-3.276;2023-05-23T02:55:40;102090.69;;;7.45;65.61
74079;BME280;62437;51.544;-3.276;2023-05-23T02:58:05;102089.93;;;7.94;65.03
74079;BME280;62437;51.544;-3.276;2023-05-23T03:00:31;102090.67;;;7.93;65.41
74079;BME280;62437;51.544;-3.276;2023-05-23T03:02:57;102089.67;;;8.08;65.04
74079;BME280;62437;51.544;-3.276;2023-05-23T03:05:23;102086.67;;;7.74;65.96
74079;BME280;62437;51.544;-3.276;2023-05-23T03:07:48;102080.99;;;7.47;66.44
74079;BME280;62437;51.544;-3.276;2023-05-23T03:10:14;102081.41;;;7.22;67.12
74079;BME280;62437;51.544;-3.276;2023-05-23T03:12:40;102085.27;;;7.08;67.35
74079;BME280;62437;51.544;-3.276;2023-05-23T03:15:06;102083.71;;;7.00;68.09
74079;BME280;62437;51.544;-3.276;2023-05-23T03:17:31;102085.37;;;7.12;66.80
74079;BME280;62437;51.544;-3.276;2023-05-23T03:19:57;102086.30;;;6.81;67.58
74079;BME280;62437;51.544;-3.276;2023-05-23T03:22:23;102089.13;;;6.91;68.43
74079;BME280;62437;51.544;-3.276;2023-05-23T03:24:49;102090.70;;;7.19;68.43
74079;BME280;62437;51.544;-3.276;2023-05-23T03:27:14;102093.14;;;6.84;67.72
74079;BME280;62437;51.544;-3.276;2023-05-23T03:29:40;102093.47;;;6.67;67.90
74079;BME280;62437;51.544;-3.276;2023-05-23T03:32:06;102093.51;;;6.99;67.53
74079;BME280;62437;51.544;-3.276;2023-05-23T03:34:32;102091.14;;;7.15;67.38
74079;BME280;62437;51.544;-3.276;2023-05-23T03:36:57;102098.23;;;6.73;67.25
74079;BME280;62437;51.544;-3.276;2023-05-23T03:39:23;102097.63;;;6.85;65.97
74079;BME280;62437;51.544;-3.276;2023-05-23T03:41:49;102099.03;;;6.95;67.11
74079;BME280;62437;51.544;-3.276;2023-05-23T03:44:14;102096.77;;;7.37;66.83
74079;BME280;62437;51.544;-3.276;2023-05-23T03:46:41;102101.26;;;7.36;66.33
74079;BME280;62437;51.544;-3.276;2023-05-23T03:49:06;102102.82;;;7.20;66.58
74079;BME280;62437;51.544;-3.276;2023-05-23T03:51:32;102100.55;;;6.83;67.44
74079;BME280;62437;51.544;-3.276;2023-05-23T03:53:57;102102.82;;;6.93;67.02
74079;BME280;62437;51.544;-3.276;2023-05-23T03:56:23;102107.59;;;6.74;67.58
74079;BME280;62437;51.544;-3.276;2023-05-23T03:58:49;102110.62;;;6.49;68.32
74079;BME280;62437;51.544;-3.276;2023-05-23T04:01:15;102112.07;;;6.80;68.71
74079;BME280;62437;51.544;-3.276;2023-05-23T04:03:40;102113.32;;;6.63;69.66
74079;BME280;62437;51.544;-3.276;2023-05-23T04:06:06;102112.55;;;6.43;68.74
74079;BME280;62437;51.544;-3.276;2023-05-23T04:08:37;102111.51;;;6.64;68.84
74079;BME280;62437;51.544;-3.276;2023-05-23T04:10:58;102108.10;;;5.97;69.44
74079;BME280;62437;51.544;-3.276;2023-05-23T04:13:23;102110.43;;;6.40;69.16
74079;BME280;62437;51.544;-3.276;2023-05-23T04:15:49;102107.70;;;6.43;69.13
74079;BME280;62437;51.544;-3.276;2023-05-23T04:18:15;102107.21;;;6.38;69.81
74079;BME280;62437;51.544;-3.276;2023-05-23T04:20:41;102109.65;;;6.42;69.84
74079;BME280;62437;51.544;-3.276;2023-05-23T04:23:06;102108.69;;;6.55;69.38
74079;BME280;62437;51.544;-3.276;2023-05-23T04:25:32;102116.33;;;6.64;69.08
74079;BME280;62437;51.544;-3.276;2023-05-23T04:27:58;102117.51;;;6.54;69.30
74079;BME280;62437;51.544;-3.276;2023-05-23T04:30:23;102117.54;;;6.13;69.98
74079;BME280;62437;51.544;-3.276;2023-05-23T04:32:49;102117.25;;;6.30;69.85
74079;BME280;62437;51.544;-3.276;2023-05-23T04:35:15;102117.92;;;6.16;70.33
74079;BME280;62437;51.544;-3.276;2023-05-23T04:37:41;102115.96;;;6.33;69.84
74079;BME280;62437;51.544;-3.276;2023-05-23T04:40:07;102120.79;;;6.16;70.41
74079;BME280;62437;51.544;-3.276;2023-05-23T04:42:32;102122.31;;;6.42;71.01
74079;BME280;62437;51.544;-3.276;2023-05-23T04:44:58;102124.89;;;6.36;70.55
74079;BME280;62437;51.544;-3.276;2023-05-23T04:47:24;102127.95;;;6.27;71.09
74079;BME280;62437;51.544;-3.276;2023-05-23T04:49:49;102129.59;;;6.76;69.67
74079;BME280;62437;51.544;-3.276;2023-05-23T04:52:15;102128.42;;;6.49;70.57
74079;BME280;62437;51.544;-3.276;2023-05-23T04:54:41;102129.53;;;6.34;69.87
74079;BME280;62437;51.544;-3.276;2023-05-23T04:57:06;102128.70;;;6.28;70.32
74079;BME280;62437;51.544;-3.276;2023-05-23T04:59:32;102128.42;;;6.21;71.52
74079;BME280;62437;51.544;-3.276;2023-05-23T05:01:58;102130.62;;;6.57;70.44
74079;BME280;62437;51.544;-3.276;2023-05-23T05:04:24;102127.48;;;6.54;70.11
74079;BME280;62437;51.544;-3.276;2023-05-23T05:06:50;102130.77;;;6.42;70.17
74079;BME280;62437;51.544;-3.276;2023-05-23T05:09:15;102133.87;;;6.83;71.18
74079;BME280;62437;51.544;-3.276;2023-05-23T05:11:41;102137.67;;;6.44;70.76
74079;BME280;62437;51.544;-3.276;2023-05-23T05:14:07;102137.30;;;6.80;70.77
74079;BME280;62437;51.544;-3.276;2023-05-23T05:16:32;102136.27;;;6.94;70.32
74079;BME280;62437;51.544;-3.276;2023-05-23T05:18:58;102138.82;;;6.92;70.48
74079;BME280;62437;51.544;-3.276;2023-05-23T05:21:24;102137.40;;;7.15;70.09
74079;BME280;62437;51.544;-3.276;2023-05-23T05:23:49;102144.01;;;7.00;66.83
74079;BME280;62437;51.544;-3.276;2023-05-23T05:26:15;102146.83;;;6.93;67.39
74079;BME280;62437;51.544;-3.276;2023-05-23T05:28:41;102145.15;;;7.25;67.40
74079;BME280;62437;51.544;-3.276;2023-05-23T05:31:07;102148.34;;;7.29;67.24
74079;BME280;62437;51.544;-3.276;2023-05-23T05:33:32;102152.29;;;7.05;67.48
74079;BME280;62437;51.544;-3.276;2023-05-23T05:35:58;102154.79;;;7.20;68.30
74079;BME280;62437;51.544;-3.276;2023-05-23T05:38:24;102151.53;;;7.35;66.88
74079;BME280;62437;51.544;-3.276;2023-05-23T05:40:50;102150.33;;;7.26;66.12
74079;BME280;62437;51.544;-3.276;2023-05-23T05:43:15;102149.12;;;7.48;66.98
74079;BME280;62437;51.544;-3.276;2023-05-23T05:45:41;102148.42;;;7.44;66.04
74079;BME280;62437;51.544;-3.276;2023-05-23T05:48:07;102148.49;;;7.33;65.26
74079;BME280;62437;51.544;-3.276;2023-05-23T05:50:32;102144.73;;;7.51;65.62
74079;BME280;62437;51.544;-3.276;2023-05-23T05:52:58;102140.89;;;8.07;65.91
74079;BME280;62437;51.544;-3.276;2023-05-23T05:55:24;102141.24;;;8.30;66.09
74079;BME280;62437;51.544;-3.276;2023-05-23T05:57:50;102141.55;;;8.63;66.28
74079;BME280;62437;51.544;-3.276;2023-05-23T06:00:16;102145.31;;;8.35;65.80
74079;BME280;62437;51.544;-3.276;2023-05-23T06:02:42;102146.10;;;8.51;65.68
74079;BME280;62437;51.544;-3.276;2023-05-23T06:05:08;102142.29;;;8.78;66.62
74079;BME280;62437;51.544;-3.276;2023-05-23T06:07:33;102145.01;;;8.54;66.43
74079;BME280;62437;51.544;-3.276;2023-05-23T06:09:58;102145.43;;;9.05;65.68
74079;BME280;62437;51.544;-3.276;2023-05-23T06:12:24;102147.51;;;9.10;63.01
74079;BME280;62437;51.544;-3.276;2023-05-23T06:14:50;102145.48;;;9.39;65.14
74079;BME280;62437;51.544;-3.276;2023-05-23T06:17:15;102142.32;;;9.22;64.13
74079;BME280;62437;51.544;-3.276;2023-05-23T06:19:41;102142.97;;;9.07;62.93
74079;BME280;62437;51.544;-3.276;2023-05-23T06:22:07;102145.51;;;8.89;66.10
74079;BME280;62437;51.544;-3.276;2023-05-23T06:24:32;102143.15;;;8.91;63.30
74079;BME280;62437;51.544;-3.276;2023-05-23T06:26:58;102144.65;;;8.97;64.09
74079;BME280;62437;51.544;-3.276;2023-05-23T06:29:24;102146.77;;;8.85;62.69
74079;BME280;62437;51.544;-3.276;2023-05-23T06:31:49;102151.49;;;9.27;61.01
74079;BME280;62437;51.544;-3.276;2023-05-23T06:34:15;102153.88;;;8.74;62.55
74079;BME280;62437;51.544;-3.276;2023-05-23T06:36:41;102157.68;;;8.73;62.91
74079;BME280;62437;51.544;-3.276;2023-05-23T06:39:06;102159.55;;;8.60;63.81
74079;BME280;62437;51.544;-3.276;2023-05-23T06:41:32;102159.55;;;9.28;64.55
74079;BME280;62437;51.544;-3.276;2023-05-23T06:43:58;102159.27;;;9.15;65.06
74079;BME280;62437;51.544;-3.276;2023-05-23T06:46:24;102160.36;;;9.34;65.07
74079;BME280;62437;51.544;-3.276;2023-05-23T06:48:49;102156.37;;;9.33;64.14
74079;BME280;62437;51.544;-3.276;2023-05-23T06:51:15;102158.87;;;9.38;62.72
74079;BME280;62437;51.544;-3.276;2023-05-23T06:53:41;102159.93;;;9.24;63.60
74079;BME280;62437;51.544;-3.276;2023-05-23T06:56:06;102156.19;;;9.15;63.32
74079;BME280;62437;51.544;-3.276;2023-05-23T06:58:32;102156.61;;;9.43;64.22
74079;BME280;62437;51.544;-3.276;2023-05-23T07:00:58;102154.91;;;9.64;61.75
74079;BME280;62437;51.544;-3.276;2023-05-23T07:03:23;102156.20;;;9.43;62.08
74079;BME280;62437;51.544;-3.276;2023-05-23T07:05:49;102164.21;;;9.35;61.57
74079;BME280;62437;51.544;-3.276;2023-05-23T07:08:15;102166.13;;;9.77;62.05
74079;BME280;62437;51.544;-3.276;2023-05-23T07:10:40;102165.08;;;9.22;61.36
74079;BME280;62437;51.544;-3.276;2023-05-23T07:13:06;102168.26;;;9.74;61.84
74079;BME280;62437;51.544;-3.276;2023-05-23T07:15:32;102163.64;;;9.95;61.64
74079;BME280;62437;51.544;-3.276;2023-05-23T07:17:57;102167.93;;;9.75;62.11
74079;BME280;62437;51.544;-3.276;2023-05-23T07:20:23;102163.98;;;9.98;62.87
74079;BME280;62437;51.544;-3.276;2023-05-23T07:22:49;102162.84;;;9.49;62.74
74079;BME280;62437;51.544;-3.276;2023-05-23T07:25:15;102160.40;;;9.64;62.70
74079;BME280;62437;51.544;-3.276;2023-05-23T07:27:40;102161.96;;;9.82;61.94
74079;BME280;62437;51.544;-3.276;2023-05-23T07:30:07;102165.44;;;9.97;60.40
74079;BME280;62437;51.544;-3.276;2023-05-23T07:32:32;102164.60;;;10.14;61.57
74079;BME280;62437;51.544;-3.276;2023-05-23T07:34:57;102163.57;;;9.74;61.71
74079;BME280;62437;51.544;-3.276;2023-05-23T07:37:23;102167.92;;;10.11;61.38
74079;BME280;62437;51.544;-3.276;2023-05-23T07:39:49;102172.86;;;9.91;60.33
74079;BME280;62437;51.544;-3.276;2023-05-23T07:42:14;102171.61;;;9.74;60.42
74079;BME280;62437;51.544;-3.276;2023-05-23T07:44:40;102177.93;;;10.23;61.65
74079;BME280;62437;51.544;-3.276;2023-05-23T07:47:06;102174.69;;;10.40;60.56
74079;BME280;62437;51.544;-3.276;2023-05-23T07:49:31;102175.42;;;10.01;61.15
74079;BME280;62437;51.544;-3.276;2023-05-23T07:51:57;102173.54;;;10.35;59.97
74079;BME280;62437;51.544;-3.276;2023-05-23T07:54:23;102172.35;;;10.21;60.21
74079;BME280;62437;51.544;-3.276;2023-05-23T07:56:48;102171.36;;;10.23;59.16
74079;BME280;62437;51.544;-3.276;2023-05-23T07:59:14;102168.62;;;10.68;58.65
74079;BME280;62437;51.544;-3.276;2023-05-23T08:01:40;102167.28;;;10.22;59.02
74079;BME280;62437;51.544;-3.276;2023-05-23T08:04:05;102172.05;;;10.85;58.90
74079;BME280;62437;51.544;-3.276;2023-05-23T08:06:31;102172.98;;;10.66;59.64
74079;BME280;62437;51.544;-3.276;2023-05-23T08:08:57;102174.52;;;10.47;57.77
74079;BME280;62437;51.544;-3.276;2023-05-23T08:11:22;102172.19;;;10.46;58.98
74079;BME280;62437;51.544;-3.276;2023-05-23T08:13:48;102170.40;;;11.27;56.84
74079;BME280;62437;51.544;-3.276;2023-05-23T08:16:14;102168.77;;;11.12;55.48
74079;BME280;62437;51.544;-3.276;2023-05-23T08:18:39;102170.05;;;11.06;57.08
74079;BME280;62437;51.544;-3.276;2023-05-23T08:21:05;102160.44;;;12.75;54.62
74079;BME280;62437;51.544;-3.276;2023-05-23T08:23:31;102166.15;;;11.51;55.42
74079;BME280;62437;51.544;-3.276;2023-05-23T08:25:56;102154.00;;;12.87;55.10
74079;BME280;62437;51.544;-3.276;2023-05-23T08:28:22;102157.28;;;11.68;56.75
74079;BME280;62437;51.544;-3.276;2023-05-23T08:30:48;102153.82;;;11.59;54.52
74079;BME280;62437;51.544;-3.276;2023-05-23T08:33:13;102157.50;;;11.03;54.33
74079;BME280;62437;51.544;-3.276;2023-05-23T08:35:39;102152.95;;;11.38;53.83
74079;BME280;62437;51.544;-3.276;2023-05-23T08:38:05;102145.76;;;11.10;53.55
74079;BME280;62437;51.544;-3.276;2023-05-23T08:40:31;102135.19;;;11.47;54.47
74079;BME280;62437;51.544;-3.276;2023-05-23T08:42:56;102138.52;;;11.24;56.14
74079;BME280;62437;51.544;-3.276;2023-05-23T08:45:22;102141.90;;;11.33;55.69
74079;BME280;62437;51.544;-3.276;2023-05-23T08:47:48;102144.81;;;11.40;54.64
74079;BME280;62437;51.544;-3.276;2023-05-23T08:50:14;102145.10;;;11.23;55.09
74079;BME280;62437;51.544;-3.276;2023-05-23T08:52:43;102151.77;;;11.03;53.90
74079;BME280;62437;51.544;-3.276;2023-05-23T08:55:05;102156.66;;;11.43;52.59
74079;BME280;62437;51.544;-3.276;2023-05-23T08:57:30;102160.40;;;11.45;55.42
74079;BME280;62437;51.544;-3.276;2023-05-23T08:59:56;102154.36;;;12.75;51.60
74079;BME280;62437;51.544;-3.276;2023-05-23T09:02:21;102158.55;;;11.84;50.74
74079;BME280;62437;51.544;-3.276;2023-05-23T09:04:47;102157.32;;;11.99;55.05
74079;BME280;62437;51.544;-3.276;2023-05-23T09:07:16;102149.77;;;12.68;54.66
74079;BME280;62437;51.544;-3.276;2023-05-23T09:09:38;102146.29;;;13.73;53.19
74079;BME280;62437;51.544;-3.276;2023-05-23T09:12:04;102144.19;;;12.76;50.78
74079;BME280;62437;51.544;-3.276;2023-05-23T09:14:29;102146.60;;;12.54;50.46
74079;BME280;62437;51.544;-3.276;2023-05-23T09:17:00;102142.06;;;12.27;50.91
74079;BME280;62437;51.544;-3.276;2023-05-23T09:19:21;102147.82;;;11.92;50.54
74079;BME280;62437;51.544;-3.276;2023-05-23T09:21:46;102145.38;;;11.93;51.50
74079;BME280;62437;51.544;-3.276;2023-05-23T09:24:12;102143.29;;;12.04;50.52
74079;BME280;62437;51.544;-3.276;2023-05-23T09:26:38;102139.47;;;12.53;48.73
74079;BME280;62437;51.544;-3.276;2023-05-23T09:29:04;102144.23;;;12.83;49.40
74079;BME280;62437;51.544;-3.276;2023-05-23T09:31:30;102138.46;;;12.50;48.74
74079;BME280;62437;51.544;-3.276;2023-05-23T09:33:55;102131.77;;;12.25;50.52
74079;BME280;62437;51.544;-3.276;2023-05-23T09:36:20;102131.75;;;12.35;49.82
74079;BME280;62437;51.544;-3.276;2023-05-23T09:38:46;102128.26;;;13.25;51.47
74079;BME280;62437;51.544;-3.276;2023-05-23T09:41:12;102123.01;;;15.41;48.65
74079;BME280;62437;51.544;-3.276;2023-05-23T09:43:37;102124.67;;;14.72;45.01
74079;BME280;62437;51.544;-3.276;2023-05-23T09:46:07;102128.48;;;14.69;49.40
74079;BME280;62437;51.544;-3.276;2023-05-23T09:48:28;102125.52;;;16.27;46.11
74079;BME280;62437;51.544;-3.276;2023-05-23T09:50:54;102127.35;;;13.86;45.69
74079;BME280;62437;51.544;-3.276;2023-05-23T09:53:19;102132.41;;;16.45;48.25
74079;BME280;62437;51.544;-3.276;2023-05-23T09:55:46;102131.20;;;16.14;46.94
74079;BME280;62437;51.544;-3.276;2023-05-23T09:58:11;102128.81;;;14.38;45.89
74079;BME280;62437;51.544;-3.276;2023-05-23T10:00:37;102129.72;;;13.23;47.77
74079;BME280;62437;51.544;-3.276;2023-05-23T10:03:09;102131.96;;;13.26;47.32
74079;BME280;62437;51.544;-3.276;2023-05-23T10:05:33;102135.50;;;13.37;46.02
74079;BME280;62437;51.544;-3.276;2023-05-23T10:07:53;102138.70;;;13.33;48.71
74079;BME280;62437;51.544;-3.276;2023-05-23T10:10:19;102141.02;;;13.20;49.85
74079;BME280;62437;51.544;-3.276;2023-05-23T10:12:48;102146.61;;;13.01;49.46
74079;BME280;62437;51.544;-3.276;2023-05-23T10:15:13;102152.64;;;12.96;51.05
74079;BME280;62437;51.544;-3.276;2023-05-23T10:17:45;102152.25;;;12.48;48.00
74079;BME280;62437;51.544;-3.276;2023-05-23T10:20:04;102151.86;;;13.04;49.64
74079;BME280;62437;51.544;-3.276;2023-05-23T10:22:27;102150.18;;;12.51;48.23
74079;BME280;62437;51.544;-3.276;2023-05-23T10:24:53;102149.06;;;12.53;49.52
74079;BME280;62437;51.544;-3.276;2023-05-23T10:27:19;102143.37;;;12.60;48.62
74079;BME280;62437;51.544;-3.276;2023-05-23T10:29:44;102139.40;;;13.13;48.70
74079;BME280;62437;51.544;-3.276;2023-05-23T10:32:10;102137.06;;;12.71;49.75
74079;BME280;62437;51.544;-3.276;2023-05-23T10:34:40;102136.92;;;13.37;51.70
74079;BME280;62437;51.544;-3.276;2023-05-23T10:37:03;102133.90;;;13.96;51.15
74079;BME280;62437;51.544;-3.276;2023-05-23T10:39:35;102134.45;;;14.05;50.01
74079;BME280;62437;51.544;-3.276;2023-05-23T10:41:58;102130.46;;;13.89;48.67
74079;BME280;62437;51.544;-3.276;2023-05-23T10:44:28;102133.56;;;15.44;47.65
74079;BME280;62437;51.544;-3.276;2023-05-23T10:46:51;102137.81;;;15.55;46.61
74079;BME280;62437;51.544;-3.276;2023-05-23T10:49:09;102134.92;;;15.50;44.99
74079;BME280;62437;51.544;-3.276;2023-05-23T10:51:39;102138.01;;;15.37;43.93
74079;BME280;62437;51.544;-3.276;2023-05-23T10:54:00;102137.38;;;14.59;46.49
74079;BME280;62437;51.544;-3.276;2023-05-23T10:56:30;102141.37;;;13.58;49.45
74079;BME280;62437;51.544;-3.276;2023-05-23T10:58:52;102138.04;;;13.93;49.39
74079;BME280;62437;51.544;-3.276;2023-05-23T11:01:17;102135.50;;;13.78;49.56
74079;BME280;62437;51.544;-3.276;2023-05-23T11:03:48;102132.40;;;13.97;48.20
74079;BME280;62437;51.544;-3.276;2023-05-23T11:08:38;102132.97;;;13.42;50.36
74079;BME280;62437;51.544;-3.276;2023-05-23T11:11:01;102139.35;;;13.19;50.02
74079;BME280;62437;51.544;-3.276;2023-05-23T11:15:51;102132.34;;;13.55;54.00
74079;BME280;62437;51.544;-3.276;2023-05-23T11:18:22;102134.65;;;13.40;51.94
74079;BME280;62437;51.544;-3.276;2023-05-23T11:20:44;102134.77;;;13.64;50.79
74079;BME280;62437;51.544;-3.276;2023-05-23T11:23:08;102137.31;;;13.36;49.08
74079;BME280;62437;51.544;-3.276;2023-05-23T11:25:40;102142.97;;;13.05;48.47
74079;BME280;62437;51.544;-3.276;2023-05-23T11:28:03;102138.26;;;13.40;49.44
74079;BME280;62437;51.544;-3.276;2023-05-23T11:30:28;102139.81;;;13.24;52.00
74079;BME280;62437;51.544;-3.276;2023-05-23T11:32:52;102142.25;;;13.36;49.93
74079;BME280;62437;51.544;-3.276;2023-05-23T11:35:16;102139.10;;;13.84;50.28
74079;BME280;62437;51.544;-3.276;2023-05-23T11:37:42;102136.18;;;13.51;51.36
74079;BME280;62437;51.544;-3.276;2023-05-23T11:40:26;102139.54;;;13.11;53.94
74079;BME280;62437;51.544;-3.276;2023-05-23T11:42:33;102141.80;;;13.50;52.35
74079;BME280;62437;51.544;-3.276;2023-05-23T11:44:58;102142.12;;;13.59;52.54
74079;BME280;62437;51.544;-3.276;2023-05-23T11:47:24;102148.27;;;13.26;54.58
74079;BME280;62437;51.544;-3.276;2023-05-23T11:49:49;102146.09;;;13.58;51.08
74079;BME280;62437;51.544;-3.276;2023-05-23T11:52:15;102151.83;;;13.46;55.05
74079;BME280;62437;51.544;-3.276;2023-05-23T11:54:41;102151.55;;;13.37;48.67
74079;BME280;62437;51.544;-3.276;2023-05-23T11:57:06;102152.53;;;13.60;50.88
74079;BME280;62437;51.544;-3.276;2023-05-23T11:59:33;102151.02;;;13.38;54.75
74079;BME280;62437;51.544;-3.276;2023-05-23T12:01:57;102149.40;;;13.41;54.54
74079;BME280;62437;51.544;-3.276;2023-05-23T12:04:25;102150.56;;;12.91;49.88
74079;BME280;62437;51.544;-3.276;2023-05-23T12:06:50;102146.57;;;12.88;53.46
74079;BME280;62437;51.544;-3.276;2023-05-23T12:09:15;102147.35;;;13.37;50.62
74079;BME280;62437;51.544;-3.276;2023-05-23T12:11:41;102146.88;;;13.58;49.56
74079;BME280;62437;51.544;-3.276;2023-05-23T12:14:06;102143.01;;;13.94;49.82
74079;BME280;62437;51.544;-3.276;2023-05-23T12:16:33;102142.24;;;13.67;50.56
74079;BME280;62437;51.544;-3.276;2023-05-23T12:18:58;102139.40;;;13.19;50.00
74079;BME280;62437;51.544;-3.276;2023-05-23T12:21:25;102140.48;;;13.35;51.37
74079;BME280;62437;51.544;-3.276;2023-05-23T12:23:48;102142.76;;;13.87;51.18
74079;BME280;62437;51.544;-3.276;2023-05-23T12:26:14;102143.87;;;13.66;51.89
74079;BME280;62437;51.544;-3.276;2023-05-23T12:28:40;102144.69;;;13.68;52.27
74079;BME280;62437;51.544;-3.276;2023-05-23T12:31:11;102143.51;;;14.33;50.41
74079;BME280;62437;51.544;-3.276;2023-05-23T12:33:30;102144.81;;;13.83;51.18
74079;BME280;62437;51.544;-3.276;2023-05-23T12:35:56;102148.29;;;14.35;48.53
74079;BME280;62437;51.544;-3.276;2023-05-23T12:38:22;102151.50;;;14.39;48.79
74079;BME280;62437;51.544;-3.276;2023-05-23T12:43:14;102157.54;;;13.79;51.79
74079;BME280;62437;51.544;-3.276;2023-05-23T12:45:39;102159.88;;;14.82;50.51
74079;BME280;62437;51.544;-3.276;2023-05-23T12:48:05;102157.87;;;13.26;52.41